sensor_id;sensor_type;location;lat;lon;timestamp;P1;durP1;ratioP1;P2;durP2;ratioP2
11839;SDS011;5979;50.800;4.904;2022-08-25T00:01:30;4.95;;;4.65;;
11839;SDS011;5979;50.800;4.904;2022-08-25T00:04:02;5.25;;;4.95;;
11839;SDS011;5979;50.800;4.904;2022-08-25T00:06:29;5.50;;;5.03;;
11839;SDS011;5979;50.800;4.904;2022-08-25T00:08:56;4.80;;;4.40;;
11839;SDS011;5979;50.800;4.904;2022-08-25T00:11:25;6.03;;;5.13;;
11839;SDS011;5979;50.800;4.904;2022-08-25T00:13:54;5.30;;;4.90;;
11839;SDS011;5979;50.800;4.904;2022-08-25T00:16:24;5.15;;;4.85;;
11839;SDS011;5979;50.800;4.904;2022-08-25T00:18:52;5.13;;;4.63;;
11839;SDS011;5979;50.800;4.904;2022-08-25T00:21:21;5.15;;;4.80;;
11839;SDS011;5979;50.800;4.904;2022-08-25T00:23:47;6.68;;;5.20;;
11839;SDS011;5979;50.800;4.904;2022-08-25T00:26:13;5.40;;;4.97;;
11839;SDS011;5979;50.800;4.904;2022-08-25T00:28:39;5.72;;;5.32;;
11839;SDS011;5979;50.800;4.904;2022-08-25T00:31:06;4.97;;;4.57;;
11839;SDS011;5979;50.800;4.904;2022-08-25T00:33:37;5.13;;;4.63;;
11839;SDS011;5979;50.800;4.904;2022-08-25T00:36:03;5.03;;;4.72;;
11839;SDS011;5979;50.800;4.904;2022-08-25T00:38:29;5.25;;;4.85;;
11839;SDS011;5979;50.800;4.904;2022-08-25T00:40:55;5.03;;;4.72;;
11839;SDS011;5979;50.800;4.904;2022-08-25T00:46:05;5.13;;;4.72;;
11839;SDS011;5979;50.800;4.904;2022-08-25T00:48:32;5.18;;;4.47;;
11839;SDS011;5979;50.800;4.904;2022-08-25T00:50:58;5.15;;;4.85;;
11839;SDS011;5979;50.800;4.904;2022-08-25T00:53:27;5.30;;;4.90;;
11839;SDS011;5979;50.800;4.904;2022-08-25T00:55:54;5.05;;;4.75;;
11839;SDS011;5979;50.800;4.904;2022-08-25T00:58:21;6.60;;;5.97;;
11839;SDS011;5979;50.800;4.904;2022-08-25T01:00:53;7.20;;;6.70;;
11839;SDS011;5979;50.800;4.904;2022-08-25T01:03:21;6.78;;;5.97;;
11839;SDS011;5979;50.800;4.904;2022-08-25T01:05:49;8.45;;;7.70;;
11839;SDS011;5979;50.800;4.904;2022-08-25T01:08:15;6.38;;;5.88;;
11839;SDS011;5979;50.800;4.904;2022-08-25T01:10:45;6.20;;;5.80;;
11839;SDS011;5979;50.800;4.904;2022-08-25T01:13:13;4.78;;;4.45;;
11839;SDS011;5979;50.800;4.904;2022-08-25T01:15:55;6.03;;;5.47;;
11839;SDS011;5979;50.800;4.904;2022-08-25T01:18:23;6.38;;;5.78;;
11839;SDS011;5979;50.800;4.904;2022-08-25T01:20:50;7.25;;;5.90;;
11839;SDS011;5979;50.800;4.904;2022-08-25T01:23:18;5.97;;;5.55;;
11839;SDS011;5979;50.800;4.904;2022-08-25T01:25:47;5.97;;;5.57;;
11839;SDS011;5979;50.800;4.904;2022-08-25T01:28:35;9.13;;;6.57;;
11839;SDS011;5979;50.800;4.904;2022-08-25T01:31:02;9.80;;;6.95;;
11839;SDS011;5979;50.800;4.904;2022-08-25T01:33:29;7.63;;;7.03;;
11839;SDS011;5979;50.800;4.904;2022-08-25T01:35:54;6.60;;;6.00;;
11839;SDS011;5979;50.800;4.904;2022-08-25T01:38:20;6.60;;;6.07;;
11839;SDS011;5979;50.800;4.904;2022-08-25T01:40:46;7.28;;;6.60;;
11839;SDS011;5979;50.800;4.904;2022-08-25T01:45:43;7.25;;;6.55;;
11839;SDS011;5979;50.800;4.904;2022-08-25T01:48:11;6.75;;;6.35;;
11839;SDS011;5979;50.800;4.904;2022-08-25T01:50:38;5.95;;;5.53;;
11839;SDS011;5979;50.800;4.904;2022-08-25T01:53:11;7.75;;;6.15;;
11839;SDS011;5979;50.800;4.904;2022-08-25T01:55:48;7.15;;;6.55;;
11839;SDS011;5979;50.800;4.904;2022-08-25T01:58:39;6.47;;;5.90;;
11839;SDS011;5979;50.800;4.904;2022-08-25T02:01:05;8.10;;;7.30;;
11839;SDS011;5979;50.800;4.904;2022-08-25T02:03:35;7.60;;;7.00;;
11839;SDS011;5979;50.800;4.904;2022-08-25T02:06:03;7.95;;;7.25;;
11839;SDS011;5979;50.800;4.904;2022-08-25T02:08:29;8.50;;;5.95;;
11839;SDS011;5979;50.800;4.904;2022-08-25T02:10:55;7.70;;;7.00;;
11839;SDS011;5979;50.800;4.904;2022-08-25T02:13:21;7.38;;;6.55;;
11839;SDS011;5979;50.800;4.904;2022-08-25T02:15:48;8.43;;;6.47;;
11839;SDS011;5979;50.800;4.904;2022-08-25T02:18:16;7.57;;;7.00;;
11839;SDS011;5979;50.800;4.904;2022-08-25T02:20:43;7.18;;;6.53;;
11839;SDS011;5979;50.800;4.904;2022-08-25T02:23:08;7.07;;;6.38;;
11839;SDS011;5979;50.800;4.904;2022-08-25T02:25:36;7.28;;;6.57;;
11839;SDS011;5979;50.800;4.904;2022-08-25T02:28:03;6.45;;;5.95;;
11839;SDS011;5979;50.800;4.904;2022-08-25T02:30:29;6.28;;;5.82;;
11839;SDS011;5979;50.800;4.904;2022-08-25T02:32:54;7.93;;;7.30;;
11839;SDS011;5979;50.800;4.904;2022-08-25T02:35:21;10.45;;;7.32;;
11839;SDS011;5979;50.800;4.904;2022-08-25T02:37:47;6.32;;;5.75;;
11839;SDS011;5979;50.800;4.904;2022-08-25T02:40:15;7.20;;;6.45;;
11839;SDS011;5979;50.800;4.904;2022-08-25T02:42:41;6.00;;;5.63;;
11839;SDS011;5979;50.800;4.904;2022-08-25T02:45:07;6.38;;;5.97;;
11839;SDS011;5979;50.800;4.904;2022-08-25T02:47:33;5.85;;;5.35;;
11839;SDS011;5979;50.800;4.904;2022-08-25T02:50:02;8.10;;;7.40;;
11839;SDS011;5979;50.800;4.904;2022-08-25T02:52:29;7.00;;;6.47;;
11839;SDS011;5979;50.800;4.904;2022-08-25T02:54:54;8.55;;;6.55;;
11839;SDS011;5979;50.800;4.904;2022-08-25T02:57:20;7.00;;;6.30;;
11839;SDS011;5979;50.800;4.904;2022-08-25T02:59:46;7.68;;;5.82;;
11839;SDS011;5979;50.800;4.904;2022-08-25T03:02:12;10.05;;;7.80;;
11839;SDS011;5979;50.800;4.904;2022-08-25T03:04:40;7.35;;;6.68;;
11839;SDS011;5979;50.800;4.904;2022-08-25T03:07:06;7.38;;;6.85;;
11839;SDS011;5979;50.800;4.904;2022-08-25T03:09:33;7.13;;;6.45;;
11839;SDS011;5979;50.800;4.904;2022-08-25T03:11:59;8.35;;;7.30;;
11839;SDS011;5979;50.800;4.904;2022-08-25T03:14:26;7.75;;;6.82;;
11839;SDS011;5979;50.800;4.904;2022-08-25T03:16:51;6.88;;;6.38;;
11839;SDS011;5979;50.800;4.904;2022-08-25T03:19:17;6.28;;;5.68;;
11839;SDS011;5979;50.800;4.904;2022-08-25T03:21:43;6.47;;;5.97;;
11839;SDS011;5979;50.800;4.904;2022-08-25T03:24:09;6.90;;;6.40;;
11839;SDS011;5979;50.800;4.904;2022-08-25T03:26:36;11.05;;;6.40;;
11839;SDS011;5979;50.800;4.904;2022-08-25T03:29:17;7.78;;;7.07;;
11839;SDS011;5979;50.800;4.904;2022-08-25T03:31:44;7.43;;;6.70;;
11839;SDS011;5979;50.800;4.904;2022-08-25T03:34:10;6.60;;;6.05;;
11839;SDS011;5979;50.800;4.904;2022-08-25T03:36:37;6.95;;;6.47;;
11839;SDS011;5979;50.800;4.904;2022-08-25T03:39:03;8.93;;;6.60;;
11839;SDS011;5979;50.800;4.904;2022-08-25T03:41:29;7.03;;;6.53;;
11839;SDS011;5979;50.800;4.904;2022-08-25T03:43:59;8.82;;;7.82;;
11839;SDS011;5979;50.800;4.904;2022-08-25T03:46:28;8.15;;;7.35;;
11839;SDS011;5979;50.800;4.904;2022-08-25T03:48:57;13.32;;;7.75;;
11839;SDS011;5979;50.800;4.904;2022-08-25T03:51:28;10.02;;;7.10;;
11839;SDS011;5979;50.800;4.904;2022-08-25T03:54:05;6.70;;;6.05;;
11839;SDS011;5979;50.800;4.904;2022-08-25T03:56:31;7.50;;;6.78;;
11839;SDS011;5979;50.800;4.904;2022-08-25T03:58:57;9.30;;;7.07;;
11839;SDS011;5979;50.800;4.904;2022-08-25T04:01:24;7.25;;;6.20;;
11839;SDS011;5979;50.800;4.904;2022-08-25T04:03:50;7.60;;;6.93;;
11839;SDS011;5979;50.800;4.904;2022-08-25T04:06:16;7.75;;;7.00;;
11839;SDS011;5979;50.800;4.904;2022-08-25T04:08:43;7.35;;;6.65;;
11839;SDS011;5979;50.800;4.904;2022-08-25T04:11:11;13.48;;;8.43;;
11839;SDS011;5979;50.800;4.904;2022-08-25T04:13:42;11.00;;;7.93;;
11839;SDS011;5979;50.800;4.904;2022-08-25T04:16:20;9.82;;;7.43;;
11839;SDS011;5979;50.800;4.904;2022-08-25T04:18:48;8.38;;;7.63;;
11839;SDS011;5979;50.800;4.904;2022-08-25T04:21:15;6.75;;;5.68;;
11839;SDS011;5979;50.800;4.904;2022-08-25T04:23:42;8.88;;;7.63;;
11839;SDS011;5979;50.800;4.904;2022-08-25T04:26:10;7.95;;;7.13;;
11839;SDS011;5979;50.800;4.904;2022-08-25T04:28:37;7.50;;;6.50;;
11839;SDS011;5979;50.800;4.904;2022-08-25T04:31:06;6.90;;;6.30;;
11839;SDS011;5979;50.800;4.904;2022-08-25T04:33:35;7.60;;;6.40;;
11839;SDS011;5979;50.800;4.904;2022-08-25T04:36:02;8.32;;;6.88;;
11839;SDS011;5979;50.800;4.904;2022-08-25T04:38:29;11.60;;;7.20;;
11839;SDS011;5979;50.800;4.904;2022-08-25T04:50:25;8.00;;;7.28;;
11839;SDS011;5979;50.800;4.904;2022-08-25T04:52:50;8.07;;;7.20;;
11839;SDS011;5979;50.800;4.904;2022-08-25T04:55:16;7.82;;;7.07;;
11839;SDS011;5979;50.800;4.904;2022-08-25T04:57:42;12.60;;;8.15;;
11839;SDS011;5979;50.800;4.904;2022-08-25T05:00:08;9.43;;;7.93;;
11839;SDS011;5979;50.800;4.904;2022-08-25T05:02:34;13.32;;;8.23;;
11839;SDS011;5979;50.800;4.904;2022-08-25T05:05:00;15.52;;;8.65;;
11839;SDS011;5979;50.800;4.904;2022-08-25T05:07:27;10.70;;;8.10;;
11839;SDS011;5979;50.800;4.904;2022-08-25T05:09:53;12.82;;;7.82;;
11839;SDS011;5979;50.800;4.904;2022-08-25T05:12:19;20.88;;;8.02;;
11839;SDS011;5979;50.800;4.904;2022-08-25T05:14:45;10.38;;;8.05;;
11839;SDS011;5979;50.800;4.904;2022-08-25T05:17:11;13.43;;;8.02;;
11839;SDS011;5979;50.800;4.904;2022-08-25T05:19:36;12.88;;;7.00;;
11839;SDS011;5979;50.800;4.904;2022-08-25T05:22:02;14.98;;;6.90;;
11839;SDS011;5979;50.800;4.904;2022-08-25T05:24:28;10.80;;;6.90;;
11839;SDS011;5979;50.800;4.904;2022-08-25T05:26:54;9.40;;;6.25;;
11839;SDS011;5979;50.800;4.904;2022-08-25T05:29:20;8.73;;;6.18;;
11839;SDS011;5979;50.800;4.904;2022-08-25T05:31:46;8.15;;;5.50;;
11839;SDS011;5979;50.800;4.904;2022-08-25T05:34:11;7.35;;;5.00;;
11839;SDS011;5979;50.800;4.904;2022-08-25T05:36:37;13.18;;;6.15;;
11839;SDS011;5979;50.800;4.904;2022-08-25T05:39:07;16.33;;;6.15;;
11839;SDS011;5979;50.800;4.904;2022-08-25T05:41:38;9.07;;;5.72;;
11839;SDS011;5979;50.800;4.904;2022-08-25T05:44:03;14.30;;;7.35;;
11839;SDS011;5979;50.800;4.904;2022-08-25T05:46:29;17.52;;;6.65;;
11839;SDS011;5979;50.800;4.904;2022-08-25T05:48:55;15.15;;;5.93;;
11839;SDS011;5979;50.800;4.904;2022-08-25T05:51:21;16.38;;;6.47;;
11839;SDS011;5979;50.800;4.904;2022-08-25T05:53:47;13.90;;;5.00;;
11839;SDS011;5979;50.800;4.904;2022-08-25T05:56:14;13.18;;;6.15;;
11839;SDS011;5979;50.800;4.904;2022-08-25T05:58:41;12.60;;;5.70;;
11839;SDS011;5979;50.800;4.904;2022-08-25T06:01:08;11.50;;;5.47;;
11839;SDS011;5979;50.800;4.904;2022-08-25T06:04:00;10.80;;;5.72;;
11839;SDS011;5979;50.800;4.904;2022-08-25T06:06:26;8.65;;;4.95;;
11839;SDS011;5979;50.800;4.904;2022-08-25T06:08:52;15.65;;;5.97;;
11839;SDS011;5979;50.800;4.904;2022-08-25T06:11:17;8.25;;;5.30;;
11839;SDS011;5979;50.800;4.904;2022-08-25T06:13:43;7.10;;;5.07;;
11839;SDS011;5979;50.800;4.904;2022-08-25T06:16:09;6.30;;;4.07;;
11839;SDS011;5979;50.800;4.904;2022-08-25T06:18:35;8.75;;;4.38;;
11839;SDS011;5979;50.800;4.904;2022-08-25T06:21:08;9.90;;;5.82;;
11839;SDS011;5979;50.800;4.904;2022-08-25T06:23:39;10.82;;;5.40;;
11839;SDS011;5979;50.800;4.904;2022-08-25T06:26:05;8.45;;;4.18;;
11839;SDS011;5979;50.800;4.904;2022-08-25T06:28:34;9.85;;;5.97;;
11839;SDS011;5979;50.800;4.904;2022-08-25T06:31:00;13.32;;;5.25;;
11839;SDS011;5979;50.800;4.904;2022-08-25T06:33:27;6.30;;;4.90;;
11839;SDS011;5979;50.800;4.904;2022-08-25T06:35:53;8.88;;;5.00;;
11839;SDS011;5979;50.800;4.904;2022-08-25T06:38:20;4.63;;;4.20;;
11839;SDS011;5979;50.800;4.904;2022-08-25T06:40:46;5.05;;;4.55;;
11839;SDS011;5979;50.800;4.904;2022-08-25T06:43:15;6.25;;;4.40;;
11839;SDS011;5979;50.800;4.904;2022-08-25T06:45:40;7.75;;;4.15;;
11839;SDS011;5979;50.800;4.904;2022-08-25T06:48:08;4.38;;;3.88;;
11839;SDS011;5979;50.800;4.904;2022-08-25T06:50:36;4.88;;;4.32;;
11839;SDS011;5979;50.800;4.904;2022-08-25T06:53:03;4.32;;;3.53;;
11839;SDS011;5979;50.800;4.904;2022-08-25T06:55:29;6.03;;;3.92;;
11839;SDS011;5979;50.800;4.904;2022-08-25T06:57:55;4.38;;;3.17;;
11839;SDS011;5979;50.800;4.904;2022-08-25T07:00:21;6.03;;;3.65;;
11839;SDS011;5979;50.800;4.904;2022-08-25T07:02:47;3.80;;;3.60;;
11839;SDS011;5979;50.800;4.904;2022-08-25T07:05:13;4.90;;;3.72;;
11839;SDS011;5979;50.800;4.904;2022-08-25T07:07:38;4.85;;;3.42;;
11839;SDS011;5979;50.800;4.904;2022-08-25T07:10:04;4.63;;;4.22;;
11839;SDS011;5979;50.800;4.904;2022-08-25T07:12:31;5.82;;;3.95;;
11839;SDS011;5979;50.800;4.904;2022-08-25T07:14:56;7.30;;;3.75;;
11839;SDS011;5979;50.800;4.904;2022-08-25T07:17:22;4.78;;;3.80;;
11839;SDS011;5979;50.800;4.904;2022-08-25T07:19:48;4.47;;;3.72;;
11839;SDS011;5979;50.800;4.904;2022-08-25T07:22:14;3.83;;;3.42;;
11839;SDS011;5979;50.800;4.904;2022-08-25T07:24:40;3.95;;;3.65;;
11839;SDS011;5979;50.800;4.904;2022-08-25T07:27:05;3.65;;;3.35;;
11839;SDS011;5979;50.800;4.904;2022-08-25T07:29:31;7.32;;;4.10;;
11839;SDS011;5979;50.800;4.904;2022-08-25T07:32:00;7.97;;;4.05;;
11839;SDS011;5979;50.800;4.904;2022-08-25T07:34:27;4.93;;;3.30;;
11839;SDS011;5979;50.800;4.904;2022-08-25T07:37:12;3.92;;;3.50;;
11839;SDS011;5979;50.800;4.904;2022-08-25T07:39:37;3.35;;;3.05;;
11839;SDS011;5979;50.800;4.904;2022-08-25T07:42:03;3.47;;;2.95;;
11839;SDS011;5979;50.800;4.904;2022-08-25T07:44:29;3.83;;;3.40;;
11839;SDS011;5979;50.800;4.904;2022-08-25T07:46:55;6.70;;;3.60;;
11839;SDS011;5979;50.800;4.904;2022-08-25T07:49:22;3.45;;;3.00;;
11839;SDS011;5979;50.800;4.904;2022-08-25T07:51:52;3.65;;;3.13;;
11839;SDS011;5979;50.800;4.904;2022-08-25T07:54:19;5.57;;;3.25;;
11839;SDS011;5979;50.800;4.904;2022-08-25T07:56:45;6.35;;;3.30;;
11839;SDS011;5979;50.800;4.904;2022-08-25T07:59:11;3.78;;;2.80;;
11839;SDS011;5979;50.800;4.904;2022-08-25T08:01:37;5.53;;;2.88;;
11839;SDS011;5979;50.800;4.904;2022-08-25T08:04:04;5.38;;;2.75;;
11839;SDS011;5979;50.800;4.904;2022-08-25T08:06:29;3.40;;;3.10;;
11839;SDS011;5979;50.800;4.904;2022-08-25T08:08:56;3.92;;;3.00;;
11839;SDS011;5979;50.800;4.904;2022-08-25T08:11:26;3.15;;;2.95;;
11839;SDS011;5979;50.800;4.904;2022-08-25T08:13:58;3.55;;;3.25;;
11839;SDS011;5979;50.800;4.904;2022-08-25T08:16:25;5.68;;;3.63;;
11839;SDS011;5979;50.800;4.904;2022-08-25T08:18:52;5.45;;;3.78;;
11839;SDS011;5979;50.800;4.904;2022-08-25T08:21:19;6.13;;;3.15;;
11839;SDS011;5979;50.800;4.904;2022-08-25T08:23:50;3.90;;;3.05;;
11839;SDS011;5979;50.800;4.904;2022-08-25T08:26:18;4.05;;;2.83;;
11839;SDS011;5979;50.800;4.904;2022-08-25T08:28:44;4.28;;;2.95;;
11839;SDS011;5979;50.800;4.904;2022-08-25T08:31:10;2.42;;;2.33;;
11839;SDS011;5979;50.800;4.904;2022-08-25T08:33:36;2.45;;;2.35;;
11839;SDS011;5979;50.800;4.904;2022-08-25T08:36:03;3.50;;;2.00;;
11839;SDS011;5979;50.800;4.904;2022-08-25T08:38:33;3.75;;;2.40;;
11839;SDS011;5979;50.800;4.904;2022-08-25T08:41:11;2.60;;;2.40;;
11839;SDS011;5979;50.800;4.904;2022-08-25T08:50:22;5.57;;;2.80;;
11839;SDS011;5979;50.800;4.904;2022-08-25T08:53:07;2.70;;;2.30;;
11839;SDS011;5979;50.800;4.904;2022-08-25T08:55:48;2.75;;;2.60;;
11839;SDS011;5979;50.800;4.904;2022-08-25T08:58:19;2.90;;;2.35;;
11839;SDS011;5979;50.800;4.904;2022-08-25T09:00:48;3.00;;;2.55;;
11839;SDS011;5979;50.800;4.904;2022-08-25T09:06:01;4.32;;;2.55;;
11839;SDS011;5979;50.800;4.904;2022-08-25T09:08:30;3.08;;;2.75;;
11839;SDS011;5979;50.800;4.904;2022-08-25T09:16:27;6.20;;;2.45;;
11839;SDS011;5979;50.800;4.904;2022-08-25T09:22:07;5.28;;;2.33;;
11839;SDS011;5979;50.800;4.904;2022-08-25T09:24:50;2.42;;;2.20;;
11839;SDS011;5979;50.800;4.904;2022-08-25T09:32:35;2.50;;;2.25;;
11839;SDS011;5979;50.800;4.904;2022-08-25T09:35:05;2.80;;;2.17;;
11839;SDS011;5979;50.800;4.904;2022-08-25T09:37:38;2.97;;;1.98;;
11839;SDS011;5979;50.800;4.904;2022-08-25T09:40:04;1.95;;;1.77;;
11839;SDS011;5979;50.800;4.904;2022-08-25T09:42:47;2.20;;;2.10;;
11839;SDS011;5979;50.800;4.904;2022-08-25T09:45:15;1.70;;;1.60;;
11839;SDS011;5979;50.800;4.904;2022-08-25T09:47:54;2.00;;;1.77;;
11839;SDS011;5979;50.800;4.904;2022-08-25T09:50:19;2.65;;;1.70;;
11839;SDS011;5979;50.800;4.904;2022-08-25T09:52:45;1.55;;;1.55;;
11839;SDS011;5979;50.800;4.904;2022-08-25T09:57:48;2.65;;;2.05;;
11839;SDS011;5979;50.800;4.904;2022-08-25T10:00:19;1.67;;;1.60;;
11839;SDS011;5979;50.800;4.904;2022-08-25T10:11:08;1.95;;;1.80;;
11839;SDS011;5979;50.800;4.904;2022-08-25T10:13:40;2.08;;;1.85;;
11839;SDS011;5979;50.800;4.904;2022-08-25T10:16:11;1.67;;;1.67;;
11839;SDS011;5979;50.800;4.904;2022-08-25T10:21:34;6.60;;;2.25;;
11839;SDS011;5979;50.800;4.904;2022-08-25T10:24:02;2.90;;;1.83;;
11839;SDS011;5979;50.800;4.904;2022-08-25T10:26:43;1.92;;;1.83;;
11839;SDS011;5979;50.800;4.904;2022-08-25T10:35:19;3.83;;;2.20;;
11839;SDS011;5979;50.800;4.904;2022-08-25T10:37:59;3.30;;;2.05;;
11839;SDS011;5979;50.800;4.904;2022-08-25T10:40:37;1.88;;;1.77;;
11839;SDS011;5979;50.800;4.904;2022-08-25T10:43:34;4.45;;;1.55;;
11839;SDS011;5979;50.800;4.904;2022-08-25T10:46:24;2.10;;;1.90;;
11839;SDS011;5979;50.800;4.904;2022-08-25T10:51:32;3.22;;;2.10;;
11839;SDS011;5979;50.800;4.904;2022-08-25T10:56:45;1.85;;;1.75;;
11839;SDS011;5979;50.800;4.904;2022-08-25T11:07:56;2.15;;;2.03;;
11839;SDS011;5979;50.800;4.904;2022-08-25T11:10:34;1.92;;;1.83;;
11839;SDS011;5979;50.800;4.904;2022-08-25T11:16:15;3.67;;;2.20;;
11839;SDS011;5979;50.800;4.904;2022-08-25T11:18:54;2.33;;;2.22;;
11839;SDS011;5979;50.800;4.904;2022-08-25T11:22:29;2.70;;;1.80;;
11839;SDS011;5979;50.800;4.904;2022-08-25T11:24:34;4.72;;;2.25;;
11839;SDS011;5979;50.800;4.904;2022-08-25T11:27:23;1.70;;;1.60;;
11839;SDS011;5979;50.800;4.904;2022-08-25T11:30:05;2.10;;;2.00;;
11839;SDS011;5979;50.800;4.904;2022-08-25T11:32:34;2.75;;;2.22;;
11839;SDS011;5979;50.800;4.904;2022-08-25T11:35:03;2.20;;;2.10;;
11839;SDS011;5979;50.800;4.904;2022-08-25T11:37:34;1.88;;;1.83;;
11839;SDS011;5979;50.800;4.904;2022-08-25T11:40:12;6.15;;;2.05;;
11839;SDS011;5979;50.800;4.904;2022-08-25T11:43:01;4.68;;;2.20;;
11839;SDS011;5979;50.800;4.904;2022-08-25T11:48:49;2.25;;;1.90;;
11839;SDS011;5979;50.800;4.904;2022-08-25T11:52:02;2.42;;;2.33;;
11839;SDS011;5979;50.800;4.904;2022-08-25T11:54:27;1.98;;;1.80;;
11839;SDS011;5979;50.800;4.904;2022-08-25T11:57:01;3.80;;;2.10;;
11839;SDS011;5979;50.800;4.904;2022-08-25T12:02:34;3.58;;;1.88;;
11839;SDS011;5979;50.800;4.904;2022-08-25T12:10:18;2.28;;;2.17;;
11839;SDS011;5979;50.800;4.904;2022-08-25T12:25:53;2.58;;;2.25;;
11839;SDS011;5979;50.800;4.904;2022-08-25T12:31:27;3.85;;;2.40;;
11839;SDS011;5979;50.800;4.904;2022-08-25T12:34:01;2.25;;;2.15;;
11839;SDS011;5979;50.800;4.904;2022-08-25T12:36:35;2.10;;;2.00;;
11839;SDS011;5979;50.800;4.904;2022-08-25T12:41:59;2.42;;;2.25;;
11839;SDS011;5979;50.800;4.904;2022-08-25T12:44:38;3.75;;;2.30;;
11839;SDS011;5979;50.800;4.904;2022-08-25T12:49:44;2.00;;;1.80;;
11839;SDS011;5979;50.800;4.904;2022-08-25T12:52:20;1.83;;;1.73;;
11839;SDS011;5979;50.800;4.904;2022-08-25T13:00:25;2.47;;;2.38;;
11839;SDS011;5979;50.800;4.904;2022-08-25T13:05:44;2.88;;;2.13;;
11839;SDS011;5979;50.800;4.904;2022-08-25T13:11:40;1.77;;;1.77;;
11839;SDS011;5979;50.800;4.904;2022-08-25T13:14:18;2.13;;;2.03;;
11839;SDS011;5979;50.800;4.904;2022-08-25T13:16:56;2.25;;;1.90;;
11839;SDS011;5979;50.800;4.904;2022-08-25T13:19:24;2.08;;;1.80;;
11839;SDS011;5979;50.800;4.904;2022-08-25T13:21:51;1.85;;;1.85;;
11839;SDS011;5979;50.800;4.904;2022-08-25T13:24:29;2.25;;;2.00;;
11839;SDS011;5979;50.800;4.904;2022-08-25T13:27:03;2.00;;;1.90;;
11839;SDS011;5979;50.800;4.904;2022-08-25T13:29:34;2.40;;;2.20;;
11839;SDS011;5979;50.800;4.904;2022-08-25T13:32:24;2.22;;;2.13;;
11839;SDS011;5979;50.800;4.904;2022-08-25T13:34:54;2.35;;;2.15;;
11839;SDS011;5979;50.800;4.904;2022-08-25T13:37:34;5.85;;;2.10;;
11839;SDS011;5979;50.800;4.904;2022-08-25T13:40:10;2.10;;;1.90;;
11839;SDS011;5979;50.800;4.904;2022-08-25T13:42:42;2.20;;;2.10;;
11839;SDS011;5979;50.800;4.904;2022-08-25T13:45:12;2.28;;;2.10;;
11839;SDS011;5979;50.800;4.904;2022-08-25T13:48:00;3.85;;;2.22;;
11839;SDS011;5979;50.800;4.904;2022-08-25T13:58:14;2.33;;;2.00;;
11839;SDS011;5979;50.800;4.904;2022-08-25T14:01:05;3.17;;;2.42;;
11839;SDS011;5979;50.800;4.904;2022-08-25T14:03:44;2.20;;;2.10;;
11839;SDS011;5979;50.800;4.904;2022-08-25T14:08:40;3.83;;;2.03;;
11839;SDS011;5979;50.800;4.904;2022-08-25T14:11:08;2.45;;;2.13;;
11839;SDS011;5979;50.800;4.904;2022-08-25T14:13:37;2.88;;;2.55;;
11839;SDS011;5979;50.800;4.904;2022-08-25T14:18:51;2.13;;;2.03;;
11839;SDS011;5979;50.800;4.904;2022-08-25T14:21:19;2.40;;;2.30;;
11839;SDS011;5979;50.800;4.904;2022-08-25T14:23:50;3.17;;;2.25;;
11839;SDS011;5979;50.800;4.904;2022-08-25T14:26:17;2.50;;;2.10;;
11839;SDS011;5979;50.800;4.904;2022-08-25T14:28:42;2.60;;;2.40;;
11839;SDS011;5979;50.800;4.904;2022-08-25T14:31:10;3.28;;;2.40;;
11839;SDS011;5979;50.800;4.904;2022-08-25T14:33:42;2.45;;;2.00;;
11839;SDS011;5979;50.800;4.904;2022-08-25T14:36:24;2.20;;;2.10;;
11839;SDS011;5979;50.800;4.904;2022-08-25T14:38:50;2.50;;;2.30;;
11839;SDS011;5979;50.800;4.904;2022-08-25T14:41:16;2.50;;;2.30;;
11839;SDS011;5979;50.800;4.904;2022-08-25T14:43:42;2.03;;;1.92;;
11839;SDS011;5979;50.800;4.904;2022-08-25T14:46:09;2.42;;;2.33;;
11839;SDS011;5979;50.800;4.904;2022-08-25T14:48:48;3.47;;;2.35;;
11839;SDS011;5979;50.800;4.904;2022-08-25T14:51:18;2.47;;;2.10;;
11839;SDS011;5979;50.800;4.904;2022-08-25T14:53:44;3.50;;;2.28;;
11839;SDS011;5979;50.800;4.904;2022-08-25T14:56:10;3.95;;;2.40;;
11839;SDS011;5979;50.800;4.904;2022-08-25T14:58:36;2.63;;;2.33;;
11839;SDS011;5979;50.800;4.904;2022-08-25T15:01:03;3.10;;;2.30;;
11839;SDS011;5979;50.800;4.904;2022-08-25T15:03:34;3.83;;;2.65;;
11839;SDS011;5979;50.800;4.904;2022-08-25T15:06:02;2.67;;;2.47;;
11839;SDS011;5979;50.800;4.904;2022-08-25T15:08:29;5.68;;;2.15;;
11839;SDS011;5979;50.800;4.904;2022-08-25T15:11:13;2.83;;;2.40;;
11839;SDS011;5979;50.800;4.904;2022-08-25T15:13:40;3.35;;;2.42;;
11839;SDS011;5979;50.800;4.904;2022-08-25T15:16:06;2.50;;;2.30;;
11839;SDS011;5979;50.800;4.904;2022-08-25T15:18:33;4.25;;;2.33;;
11839;SDS011;5979;50.800;4.904;2022-08-25T15:20:59;2.75;;;2.05;;
11839;SDS011;5979;50.800;4.904;2022-08-25T15:23:25;3.80;;;2.60;;
11839;SDS011;5979;50.800;4.904;2022-08-25T15:25:52;2.03;;;1.92;;
11839;SDS011;5979;50.800;4.904;2022-08-25T15:28:19;2.13;;;2.03;;
11839;SDS011;5979;50.800;4.904;2022-08-25T15:30:45;2.67;;;2.47;;
11839;SDS011;5979;50.800;4.904;2022-08-25T15:33:12;3.67;;;2.22;;
11839;SDS011;5979;50.800;4.904;2022-08-25T15:35:38;2.15;;;2.05;;
11839;SDS011;5979;50.800;4.904;2022-08-25T15:38:03;4.47;;;2.28;;
11839;SDS011;5979;50.800;4.904;2022-08-25T15:40:29;2.30;;;2.20;;
11839;SDS011;5979;50.800;4.904;2022-08-25T15:42:55;2.00;;;1.90;;
11839;SDS011;5979;50.800;4.904;2022-08-25T15:45:22;6.22;;;2.30;;
11839;SDS011;5979;50.800;4.904;2022-08-25T15:47:47;2.85;;;2.22;;
11839;SDS011;5979;50.800;4.904;2022-08-25T15:50:14;2.83;;;2.47;;
11839;SDS011;5979;50.800;4.904;2022-08-25T15:52:43;2.15;;;2.05;;
11839;SDS011;5979;50.800;4.904;2022-08-25T15:55:09;3.42;;;2.45;;
11839;SDS011;5979;50.800;4.904;2022-08-25T15:57:36;5.03;;;2.38;;
11839;SDS011;5979;50.800;4.904;2022-08-25T16:00:06;2.30;;;2.20;;
11839;SDS011;5979;50.800;4.904;2022-08-25T16:02:35;6.18;;;2.67;;
11839;SDS011;5979;50.800;4.904;2022-08-25T16:05:01;2.38;;;2.13;;
11839;SDS011;5979;50.800;4.904;2022-08-25T16:07:27;2.35;;;2.20;;
11839;SDS011;5979;50.800;4.904;2022-08-25T16:09:56;3.53;;;2.40;;
11839;SDS011;5979;50.800;4.904;2022-08-25T16:12:23;2.75;;;2.17;;
11839;SDS011;5979;50.800;4.904;2022-08-25T16:14:49;2.22;;;2.10;;
11839;SDS011;5979;50.800;4.904;2022-08-25T16:17:16;2.83;;;2.20;;
11839;SDS011;5979;50.800;4.904;2022-08-25T16:19:43;2.40;;;2.20;;
11839;SDS011;5979;50.800;4.904;2022-08-25T16:22:09;2.70;;;2.50;;
11839;SDS011;5979;50.800;4.904;2022-08-25T16:24:37;3.47;;;2.85;;
11839;SDS011;5979;50.800;4.904;2022-08-25T16:27:10;7.88;;;3.55;;
11839;SDS011;5979;50.800;4.904;2022-08-25T16:29:39;4.03;;;3.30;;
11839;SDS011;5979;50.800;4.904;2022-08-25T16:32:06;5.82;;;3.30;;
11839;SDS011;5979;50.800;4.904;2022-08-25T16:34:33;3.83;;;3.30;;
11839;SDS011;5979;50.800;4.904;2022-08-25T16:36:59;7.80;;;3.45;;
11839;SDS011;5979;50.800;4.904;2022-08-25T16:39:26;5.45;;;3.35;;
11839;SDS011;5979;50.800;4.904;2022-08-25T16:41:52;4.57;;;3.30;;
11839;SDS011;5979;50.800;4.904;2022-08-25T16:44:18;5.22;;;3.60;;
11839;SDS011;5979;50.800;4.904;2022-08-25T16:46:44;7.05;;;3.15;;
11839;SDS011;5979;50.800;4.904;2022-08-25T16:49:11;4.55;;;3.63;;
11839;SDS011;5979;50.800;4.904;2022-08-25T16:51:38;7.07;;;6.38;;
11839;SDS011;5979;50.800;4.904;2022-08-25T16:54:10;13.88;;;7.22;;
11839;SDS011;5979;50.800;4.904;2022-08-25T16:56:55;7.90;;;6.63;;
11839;SDS011;5979;50.800;4.904;2022-08-25T16:59:21;8.45;;;6.07;;
11839;SDS011;5979;50.800;4.904;2022-08-25T17:01:48;7.82;;;5.68;;
11839;SDS011;5979;50.800;4.904;2022-08-25T17:04:13;6.78;;;6.10;;
11839;SDS011;5979;50.800;4.904;2022-08-25T17:06:40;8.75;;;6.40;;
11839;SDS011;5979;50.800;4.904;2022-08-25T17:09:07;7.80;;;6.57;;
11839;SDS011;5979;50.800;4.904;2022-08-25T17:11:39;10.20;;;6.80;;
11839;SDS011;5979;50.800;4.904;2022-08-25T17:14:10;7.25;;;6.00;;
11839;SDS011;5979;50.800;4.904;2022-08-25T17:16:37;7.03;;;6.15;;
11839;SDS011;5979;50.800;4.904;2022-08-25T17:19:05;10.80;;;6.30;;
11839;SDS011;5979;50.800;4.904;2022-08-25T17:21:36;7.75;;;6.47;;
11839;SDS011;5979;50.800;4.904;2022-08-25T17:24:04;8.50;;;5.95;;
11839;SDS011;5979;50.800;4.904;2022-08-25T17:26:30;6.43;;;5.97;;